createdAt,value
2018-11-05T00:00:30.724Z,14.52
2018-11-05T00:01:40.817Z,14.56
2018-11-05T00:02:50.902Z,14.51
2018-11-05T00:04:00.741Z,14.51
2018-11-05T00:05:10.618Z,14.52
2018-11-05T00:06:19.941Z,14.51
2018-11-05T00:07:30.028Z,14.49
2018-11-05T00:08:39.848Z,14.49
2018-11-05T00:09:49.678Z,14.51
2018-11-05T00:10:59.753Z,14.52
2018-11-05T00:12:09.326Z,14.59
2018-11-05T00:13:19.146Z,14.66
2018-11-05T00:14:29.208Z,14.56
2018-11-05T00:15:39.039Z,14.61
2018-11-05T00:16:48.916Z,14.53
2018-11-05T00:17:59.050Z,14.59
2018-11-05T00:19:09.237Z,14.52
2018-11-05T00:20:19.315Z,14.6
2018-11-05T00:21:29.388Z,14.57
2018-11-05T00:22:39.502Z,14.6
2018-11-05T00:23:49.603Z,14.75
2018-11-05T00:24:59.692Z,14.63
2018-11-05T00:26:09.518Z,14.67
2018-11-05T00:27:19.362Z,14.66
2018-11-05T00:28:29.473Z,14.64
2018-11-05T00:29:39.017Z,14.7
2018-11-05T00:30:48.313Z,14.69
2018-11-05T00:31:58.123Z,14.67
2018-11-05T00:33:11.197Z,14.7
2018-11-05T00:34:21.061Z,14.7
2018-11-05T00:35:31.138Z,14.63
2018-11-05T00:36:40.948Z,14.67
2018-11-05T00:37:51.032Z,14.63
2018-11-05T00:39:01.320Z,14.7
2018-11-05T00:40:10.649Z,14.7
2018-11-05T00:41:20.717Z,14.7
2018-11-05T00:42:30.510Z,14.7
2018-11-05T00:43:40.570Z,14.69
2018-11-05T00:44:50.646Z,14.7
2018-11-05T00:46:02.506Z,14.69
2018-11-05T00:47:12.592Z,14.7
2018-11-05T00:48:22.667Z,14.71
2018-11-05T00:49:32.506Z,14.8
2018-11-05T00:50:42.567Z,14.77
2018-11-05T00:51:52.674Z,14.74
2018-11-05T00:53:02.798Z,14.75
2018-11-05T00:54:12.617Z,14.82
2018-11-05T00:55:22.471Z,14.87
2018-11-05T00:56:32.424Z,14.75
2018-11-05T00:57:43.021Z,14.74
2018-11-05T00:58:53.111Z,14.82
2018-11-05T01:00:03.181Z,14.82
2018-11-05T01:01:13.238Z,14.79
2018-11-05T01:02:23.039Z,14.79
2018-11-05T01:03:32.845Z,14.74
2018-11-05T01:04:42.713Z,14.79
2018-11-05T01:05:52.785Z,14.7
2018-11-05T01:07:03.306Z,14.7
2018-11-05T01:08:13.362Z,14.74
2018-11-05T01:09:23.170Z,14.74
2018-11-05T01:10:33.260Z,14.79
2018-11-05T01:11:43.328Z,14.77
2018-11-05T01:12:53.393Z,14.7
2018-11-05T01:14:04.481Z,14.7
2018-11-05T01:15:14.532Z,14.66
2018-11-05T01:16:24.653Z,14.66
2018-11-05T01:17:34.727Z,14.64
2018-11-05T01:18:44.794Z,14.69
2018-11-05T01:19:54.869Z,14.69
2018-11-05T01:21:04.666Z,14.67
2018-11-05T01:22:14.471Z,14.7
2018-11-05T01:23:24.524Z,14.67
2018-11-05T01:24:35.549Z,14.7
2018-11-05T01:25:45.627Z,14.7
2018-11-05T01:26:55.429Z,14.69
2018-11-05T01:28:07.007Z,14.7
2018-11-05T01:29:17.094Z,14.74
2018-11-05T01:30:27.165Z,14.71
2018-11-05T01:31:36.978Z,14.66
2018-11-05T01:32:46.791Z,14.67
2018-11-05T01:33:56.897Z,14.7
2018-11-05T01:35:06.698Z,14.64
2018-11-05T01:36:16.243Z,14.63
2018-11-05T01:37:26.392Z,14.61
2018-11-05T01:38:36.205Z,14.67
2018-11-05T01:39:45.991Z,14.7
2018-11-05T01:40:55.786Z,14.66
2018-11-05T01:42:05.866Z,14.66
2018-11-05T01:43:15.677Z,14.6
2018-11-05T01:44:25.734Z,14.71
2018-11-05T01:45:35.858Z,14.6
2018-11-05T01:46:45.918Z,14.53
2018-11-05T01:47:55.440Z,14.67
2018-11-05T01:49:08.117Z,14.67
2018-11-05T01:50:17.938Z,14.6
2018-11-05T01:51:27.762Z,14.69
2018-11-05T01:52:37.565Z,14.56
2018-11-05T01:53:47.630Z,14.61
2018-11-05T01:54:57.435Z,14.7
2018-11-05T01:56:07.509Z,14.56
2018-11-05T01:57:17.633Z,14.52
2018-11-05T01:58:27.446Z,14.59
2018-11-05T01:59:37.247Z,14.66
2018-11-05T02:00:47.321Z,14.59
2018-11-05T02:01:57.130Z,14.6
2018-11-05T02:03:07.202Z,14.6
2018-11-05T02:04:17.010Z,14.59
2018-11-05T02:05:27.082Z,14.6
2018-11-05T02:06:36.869Z,14.61
2018-11-05T02:07:46.667Z,14.63
2018-11-05T02:08:56.208Z,14.57
2018-11-05T02:10:08.719Z,14.56
2018-11-05T02:11:18.609Z,14.67
2018-11-05T02:12:28.474Z,14.59
2018-11-05T02:13:38.741Z,14.63
2018-11-05T02:14:48.305Z,14.56
2018-11-05T02:15:58.351Z,14.57
2018-11-05T02:17:08.371Z,14.63
2018-11-05T02:18:18.178Z,14.66
2018-11-05T02:19:28.266Z,14.6
2018-11-05T02:20:38.144Z,14.59
2018-11-05T02:21:47.967Z,14.59
2018-11-05T02:22:57.788Z,14.59
2018-11-05T02:24:08.012Z,14.57
2018-11-05T02:25:18.075Z,14.56
2018-11-05T02:26:27.469Z,14.59
2018-11-05T02:27:37.543Z,14.56
2018-11-05T02:28:47.355Z,14.51
2018-11-05T02:29:57.165Z,14.49
2018-11-05T02:31:07.256Z,14.45
2018-11-05T02:32:17.060Z,14.49
2018-11-05T02:33:26.899Z,14.52
2018-11-05T02:34:36.722Z,14.56
2018-11-05T02:35:46.587Z,14.46
2018-11-05T02:36:56.741Z,14.52
2018-11-05T02:38:06.611Z,14.52
2018-11-05T02:39:16.151Z,14.45
2018-11-05T02:40:26.283Z,14.51
2018-11-05T02:41:35.808Z,14.52
2018-11-05T02:42:45.356Z,14.48
2018-11-05T02:43:55.186Z,14.44
2018-11-05T02:45:04.990Z,14.36
2018-11-05T02:46:14.526Z,14.42
2018-11-05T02:47:24.325Z,14.42
2018-11-05T02:48:34.398Z,14.38
2018-11-05T02:49:44.493Z,14.45
2018-11-05T02:50:54.553Z,14.38
2018-11-05T02:52:04.644Z,14.28
2018-11-05T02:53:14.724Z,14.39
2018-11-05T02:54:24.537Z,14.31
2018-11-05T02:55:34.145Z,14.36
2018-11-05T02:56:43.709Z,14.24
2018-11-05T02:57:53.573Z,14.39
2018-11-05T02:59:05.453Z,14.28
2018-11-05T03:00:15.247Z,14.3
2018-11-05T03:01:25.316Z,14.31
2018-11-05T03:02:35.400Z,14.26
2018-11-05T03:34:44.790Z,12.88
2018-11-05T03:35:55.287Z,12.81
2018-11-05T03:37:06.071Z,12.8
2018-11-05T03:38:15.612Z,12.78
2018-11-05T03:39:25.426Z,12.8
2018-11-05T03:40:35.272Z,12.95
2018-11-05T03:41:45.338Z,13.06
2018-11-05T03:42:54.889Z,13.01
2018-11-05T03:44:07.108Z,13.13
2018-11-05T03:45:16.651Z,13.27
2018-11-05T03:46:26.462Z,13.37
2018-11-05T03:47:36.259Z,13.47
2018-11-05T03:48:45.261Z,13.5
2018-11-05T03:49:55.089Z,13.55
2018-11-05T03:51:06.207Z,13.6
2018-11-05T03:52:15.746Z,13.75
2018-11-05T03:53:25.559Z,13.76
2018-11-05T03:54:35.631Z,13.94
2018-11-05T03:55:46.086Z,13.94
2018-11-05T03:56:56.459Z,13.97
2018-11-05T03:58:06.316Z,14.06
2018-11-05T03:59:16.118Z,14.11
2018-11-05T04:00:25.933Z,14.05
2018-11-05T04:01:35.750Z,14.19
2018-11-05T04:02:45.830Z,14.21
2018-11-05T04:03:55.892Z,14.2
2018-11-05T04:05:05.967Z,14.33
2018-11-05T04:06:15.903Z,14.3
2018-11-05T04:07:25.717Z,14.27
2018-11-05T04:08:35.779Z,14.33
2018-11-05T04:09:45.571Z,14.33
2018-11-05T04:10:55.627Z,14.31
2018-11-05T04:12:05.708Z,14.31
2018-11-05T04:13:15.521Z,14.33
2018-11-05T04:14:25.328Z,14.34
2018-11-05T04:15:35.294Z,14.26
2018-11-05T04:16:45.960Z,14.31
2018-11-05T04:17:56.047Z,14.33
2018-11-05T04:19:06.117Z,14.28
2018-11-05T04:20:16.188Z,14.31
2018-11-05T04:21:25.991Z,14.26
2018-11-05T04:22:36.048Z,14.34
2018-11-05T04:23:46.171Z,14.27
2018-11-05T04:24:55.718Z,14.3
2018-11-05T04:26:05.524Z,14.23
2018-11-05T04:27:15.586Z,14.28
2018-11-05T04:28:25.504Z,14.27
2018-11-05T04:29:35.579Z,14.31
2018-11-05T04:30:45.128Z,14.21
2018-11-05T04:31:55.272Z,14.21
2018-11-05T04:33:04.591Z,14.13
2018-11-05T04:34:14.656Z,14.27
2018-11-05T04:35:24.478Z,14.26
2018-11-05T04:36:34.027Z,14.24
2018-11-05T04:37:44.106Z,14.23
2018-11-05T04:38:53.925Z,14.2
2018-11-05T04:40:03.733Z,14.19
2018-11-05T04:41:13.821Z,14.11
2018-11-05T04:42:23.918Z,14.09
2018-11-05T04:43:34.001Z,14.11
2018-11-05T04:44:43.811Z,14.16
2018-11-05T04:45:53.624Z,14.09
2018-11-05T04:47:03.162Z,14.16
2018-11-05T04:48:12.728Z,14.08
2018-11-05T04:49:22.806Z,14.08
2018-11-05T04:50:32.588Z,14.09
2018-11-05T04:51:42.405Z,14.09
2018-11-05T04:52:52.471Z,14.08
2018-11-05T04:54:02.542Z,14.03
2018-11-05T04:55:12.088Z,13.97
2018-11-05T04:56:21.623Z,14.01
2018-11-05T04:57:31.746Z,14.02
2018-11-05T04:58:41.547Z,13.94
2018-11-05T04:59:51.350Z,13.94
2018-11-05T05:01:01.488Z,13.86
2018-11-05T05:02:11.299Z,13.86
2018-11-05T05:03:21.680Z,13.95
2018-11-05T05:04:31.794Z,13.86
2018-11-05T05:05:41.868Z,13.87
2018-11-05T05:06:51.671Z,13.84
2018-11-05T05:08:01.751Z,13.84
2018-11-05T05:09:11.351Z,13.88
2018-11-05T05:10:21.152Z,13.88
2018-11-05T05:11:31.205Z,13.94
2018-11-05T05:12:40.757Z,13.81
2018-11-05T05:13:50.548Z,13.9
2018-11-05T05:15:01.880Z,13.86
2018-11-05T05:16:12.409Z,13.84
2018-11-05T05:17:22.114Z,13.88
2018-11-05T05:18:31.941Z,13.94
2018-11-05T05:19:41.542Z,13.91
2018-11-05T05:20:51.606Z,13.91
2018-11-05T05:22:01.669Z,13.9
2018-11-05T05:23:11.767Z,13.84
2018-11-05T05:24:21.865Z,13.76
2018-11-05T05:25:31.933Z,13.79
2018-11-05T05:26:41.483Z,13.79
2018-11-05T05:27:51.297Z,13.81
2018-11-05T05:29:01.377Z,13.84
2018-11-05T05:30:11.174Z,13.75
2018-11-05T05:31:20.977Z,13.83
2018-11-05T05:32:31.042Z,13.75
2018-11-05T05:33:41.551Z,13.75
2018-11-05T05:34:51.346Z,13.76
2018-11-05T05:36:02.961Z,13.73
2018-11-05T05:37:12.500Z,13.7
2018-11-05T05:38:22.102Z,13.69
2018-11-05T05:39:32.172Z,13.6
2018-11-05T05:40:42.099Z,13.7
2018-11-05T05:41:52.350Z,13.62
2018-11-05T05:43:02.422Z,13.63
2018-11-05T05:44:12.227Z,13.66
2018-11-05T05:45:22.038Z,13.68
2018-11-05T05:46:31.331Z,13.69
2018-11-05T05:47:41.412Z,13.7
2018-11-05T05:48:51.554Z,13.69
2018-11-05T05:50:00.945Z,13.69
2018-11-05T05:51:11.221Z,13.72
2018-11-05T05:52:21.036Z,13.54
2018-11-05T05:53:31.109Z,13.68
2018-11-05T05:54:41.170Z,13.6
2018-11-05T05:55:50.726Z,13.63
2018-11-05T05:57:00.663Z,13.58
2018-11-05T05:58:10.467Z,13.55
2018-11-05T05:59:20.271Z,13.62
2018-11-05T06:00:30.347Z,13.58
2018-11-05T06:01:40.218Z,13.62
2018-11-05T06:02:50.048Z,13.55
2018-11-05T06:04:00.088Z,13.58
2018-11-05T06:05:09.625Z,13.51
2018-11-05T06:06:20.280Z,13.58
2018-11-05T06:07:30.594Z,13.57
2018-11-05T06:08:40.662Z,13.48
2018-11-05T06:09:50.487Z,13.51
2018-11-05T06:11:00.798Z,13.53
2018-11-05T06:12:10.855Z,13.37
2018-11-05T06:13:20.748Z,13.36
2018-11-05T06:14:30.559Z,13.42
2018-11-05T06:15:40.507Z,13.35
2018-11-05T06:16:50.553Z,13.36
2018-11-05T06:18:01.201Z,13.32
2018-11-05T06:19:11.275Z,13.32
2018-11-05T06:20:20.823Z,13.36
2018-11-05T06:21:30.634Z,13.39
2018-11-05T06:22:40.740Z,13.37
2018-11-05T06:23:50.818Z,13.36
2018-11-05T06:25:00.616Z,13.53
2018-11-05T06:26:10.673Z,13.48
2018-11-05T06:27:20.478Z,13.42
2018-11-05T06:28:30.628Z,13.44
2018-11-05T06:29:40.672Z,13.37
2018-11-05T06:30:50.533Z,13.47
2018-11-05T06:32:00.605Z,13.54
2018-11-05T06:33:10.661Z,13.39
2018-11-05T06:34:21.800Z,13.36
2018-11-05T06:35:31.906Z,13.39
2018-11-05T06:36:42.120Z,13.47
2018-11-05T06:37:52.178Z,13.48
2018-11-05T06:39:04.103Z,13.44
2018-11-05T06:40:13.910Z,13.42
2018-11-05T06:41:24.554Z,13.45
2018-11-05T06:42:35.157Z,13.5
2018-11-05T06:43:44.708Z,13.51
2018-11-05T06:44:54.995Z,13.53
2018-11-05T06:46:05.565Z,13.6
2018-11-05T06:47:15.366Z,13.51
2018-11-05T06:48:25.440Z,13.53
2018-11-05T06:49:35.255Z,13.51
2018-11-05T06:50:44.792Z,13.57
2018-11-05T06:51:54.579Z,13.45
2018-11-05T06:53:05.029Z,13.47
2018-11-05T06:54:15.209Z,13.53
2018-11-05T06:55:24.774Z,13.53
2018-11-05T06:56:34.836Z,13.5
2018-11-05T06:57:44.677Z,13.58
2018-11-05T06:58:55.000Z,13.57
2018-11-05T07:00:05.490Z,13.53
2018-11-05T07:01:15.574Z,13.55
2018-11-05T07:02:25.510Z,13.54
2018-11-05T07:03:35.452Z,13.54
2018-11-05T07:04:45.261Z,13.66
2018-11-05T07:05:55.468Z,13.65
2018-11-05T07:07:07.496Z,13.66
2018-11-05T07:08:17.657Z,13.73
2018-11-05T07:09:27.494Z,13.7
2018-11-05T07:10:36.779Z,13.73
2018-11-05T07:11:46.858Z,13.78
2018-11-05T07:12:56.725Z,13.86
2018-11-05T07:14:07.564Z,13.9
2018-11-05T07:15:17.670Z,13.88
2018-11-05T07:16:27.471Z,13.87
2018-11-05T07:17:37.573Z,13.87
2018-11-05T07:18:48.346Z,13.84
2018-11-05T07:19:58.083Z,13.88
2018-11-05T07:21:09.005Z,13.87
2018-11-05T07:22:18.561Z,13.94
2018-11-05T07:23:28.623Z,13.86
2018-11-05T07:24:38.177Z,13.84
2018-11-05T07:25:47.994Z,13.76
2018-11-05T07:26:58.091Z,13.78
2018-11-05T07:28:07.993Z,13.73
2018-11-05T07:29:17.808Z,13.7
2018-11-05T07:30:27.635Z,13.65
2018-11-05T07:31:37.443Z,13.68
2018-11-05T07:32:46.995Z,13.65
2018-11-05T07:33:57.181Z,13.6
2018-11-05T07:35:07.423Z,13.53
2018-11-05T07:36:16.968Z,13.58
2018-11-05T07:37:26.795Z,13.53
2018-11-05T07:38:36.862Z,13.66
2018-11-05T07:39:46.937Z,13.6
2018-11-05T07:40:57.021Z,13.55
2018-11-05T07:42:06.617Z,13.62
2018-11-05T07:43:16.734Z,13.75
2018-11-05T07:44:26.537Z,13.7
2018-11-05T07:45:36.603Z,13.87
2018-11-05T07:46:46.659Z,13.88
2018-11-05T07:47:55.687Z,13.91
2018-11-05T07:49:07.816Z,13.99
2018-11-05T07:50:17.210Z,14.06
2018-11-05T07:51:27.669Z,14.24
2018-11-05T07:52:37.205Z,14.23
2018-11-05T07:53:47.336Z,14.27
2018-11-05T07:54:57.564Z,14.3
2018-11-05T07:56:07.515Z,14.23
2018-11-05T07:57:17.411Z,14.31
2018-11-05T07:58:27.209Z,14.31
2018-11-05T07:59:37.261Z,14.24
2018-11-05T08:00:47.329Z,14.24
2018-11-05T08:01:57.412Z,14.26
2018-11-05T08:03:07.635Z,14.24
2018-11-05T08:04:17.193Z,14.19
2018-11-05T08:05:26.541Z,14.28
2018-11-05T08:06:36.611Z,14.26
2018-11-05T08:07:46.682Z,14.28
2018-11-05T08:08:56.502Z,14.24
2018-11-05T08:10:07.992Z,14.27
2018-11-05T08:11:17.804Z,14.23
2018-11-05T08:12:27.889Z,14.23
2018-11-05T08:13:37.728Z,14.19
2018-11-05T08:14:47.556Z,14.09
2018-11-05T08:15:57.637Z,14.06
2018-11-05T08:17:07.549Z,14.15
2018-11-05T08:18:17.103Z,14.09
2018-11-05T08:19:27.190Z,14.19
2018-11-05T08:20:36.740Z,14.19
2018-11-05T08:21:46.009Z,14.23
2018-11-05T08:22:55.862Z,14.28
2018-11-05T08:24:07.368Z,14.36
2018-11-05T08:25:17.459Z,14.41
2018-11-05T08:26:26.731Z,14.48
2018-11-05T08:27:36.530Z,14.51
2018-11-05T08:28:46.633Z,14.56
2018-11-05T08:29:56.764Z,14.6
2018-11-05T08:31:06.060Z,14.57
2018-11-05T08:32:16.126Z,14.66
2018-11-05T08:33:25.916Z,14.67
2018-11-05T08:34:35.980Z,14.6
2018-11-05T08:35:45.786Z,14.57
2018-11-05T08:36:55.650Z,14.67
2018-11-05T08:38:08.017Z,14.77
2018-11-05T08:39:18.082Z,14.79
2018-11-05T08:40:28.260Z,14.79
2018-11-05T08:41:37.945Z,14.83
2018-11-05T08:42:47.850Z,14.74
2018-11-05T08:43:57.403Z,14.82
2018-11-05T08:45:07.493Z,14.67
2018-11-05T08:46:17.672Z,14.7
2018-11-05T08:47:27.210Z,14.67
2018-11-05T08:48:37.016Z,14.57
2018-11-05T08:49:46.888Z,14.6
2018-11-05T08:50:57.482Z,14.63
2018-11-05T08:52:07.783Z,14.69
2018-11-05T08:53:17.341Z,14.66
2018-11-05T08:54:26.909Z,14.66
2018-11-05T08:55:36.994Z,14.69
2018-11-05T08:56:47.092Z,14.61
2018-11-05T08:57:57.229Z,14.7
2018-11-05T08:59:07.761Z,14.8
2018-11-05T09:00:17.575Z,14.79
2018-11-05T09:01:27.397Z,14.66
2018-11-05T09:02:37.204Z,14.6
2018-11-05T09:03:47.092Z,14.52
2018-11-05T09:04:57.019Z,14.49
2018-11-05T09:06:06.655Z,14.67
2018-11-05T09:07:16.758Z,14.57
2018-11-05T09:08:26.577Z,14.49
2018-11-05T09:09:36.382Z,14.71
2018-11-05T09:10:46.868Z,14.59
2018-11-05T09:11:57.581Z,14.52
2018-11-05T09:13:08.008Z,14.71
2018-11-05T09:14:17.828Z,14.74
2018-11-05T09:15:27.917Z,14.59
2018-11-05T09:16:37.190Z,14.57
2018-11-05T09:17:47.062Z,14.63
2018-11-05T09:18:56.623Z,14.83
2018-11-05T09:20:06.465Z,14.75
2018-11-05T09:21:16.044Z,14.87
2018-11-05T09:22:25.867Z,15.1
2018-11-05T09:23:36.784Z,15.16
2018-11-05T09:24:48.586Z,15.31
2018-11-05T09:26:00.430Z,15.33
2018-11-05T09:27:12.384Z,15.44
2018-11-05T09:28:24.584Z,15.47
2018-11-05T09:29:36.220Z,15.35
2018-11-05T09:30:48.109Z,15.49
2018-11-05T09:32:00.407Z,15.55
2018-11-05T09:33:11.105Z,15.75
2018-11-05T09:34:22.092Z,15.86
2018-11-05T09:35:32.563Z,15.84
2018-11-05T09:36:43.437Z,15.91
2018-11-05T09:37:54.724Z,15.95
2018-11-05T09:39:06.127Z,15.86
2018-11-05T09:40:17.895Z,15.8
2018-11-05T09:41:29.541Z,15.77
2018-11-05T09:42:41.840Z,15.75
2018-11-05T09:43:53.375Z,15.8
2018-11-05T09:45:04.378Z,15.8
2018-11-05T09:46:17.552Z,15.88
2018-11-05T09:47:32.447Z,15.8
2018-11-05T09:48:45.956Z,15.86
2018-11-05T09:50:00.140Z,15.71
2018-11-05T09:51:14.399Z,15.77
2018-11-05T09:52:27.571Z,15.77
2018-11-05T09:53:38.633Z,15.74
2018-11-05T09:54:49.703Z,15.73
2018-11-05T09:56:00.506Z,15.75
2018-11-05T09:57:11.751Z,15.81
2018-11-05T09:58:23.853Z,15.8
2018-11-05T09:59:35.996Z,15.83
2018-11-05T10:00:47.631Z,15.8
2018-11-05T10:02:00.771Z,15.71
2018-11-05T10:03:14.635Z,15.59
2018-11-05T10:04:29.935Z,15.59
2018-11-05T10:05:41.447Z,15.47
2018-11-05T10:06:52.841Z,15.58
2018-11-05T10:08:03.742Z,15.45
2018-11-05T10:09:15.025Z,15.3
2018-11-05T10:10:26.566Z,15.25
2018-11-05T10:11:39.713Z,15.19
2018-11-05T10:12:51.354Z,15.12
2018-11-05T10:14:03.713Z,15.2
2018-11-05T10:15:19.378Z,15.31
2018-11-05T10:16:36.074Z,15.45
2018-11-05T10:17:50.986Z,15.53
2018-11-05T10:19:05.761Z,15.6
2018-11-05T10:20:21.925Z,15.73
2018-11-05T10:21:35.704Z,15.81
2018-11-05T10:22:49.061Z,15.84
2018-11-05T10:24:01.566Z,15.81
2018-11-05T10:25:15.362Z,15.86
2018-11-05T10:26:30.416Z,15.81
2018-11-05T10:27:43.503Z,15.78
2018-11-05T10:28:59.365Z,15.74
2018-11-05T10:30:12.826Z,15.77
2018-11-05T10:31:27.144Z,15.83
2018-11-05T10:32:42.342Z,15.73
2018-11-05T10:33:57.345Z,15.74
2018-11-05T10:35:13.268Z,15.86
2018-11-05T10:36:27.498Z,15.81
2018-11-05T10:37:41.801Z,15.78
2018-11-05T10:38:56.340Z,15.77
2018-11-05T10:40:12.787Z,15.75
2018-11-05T10:41:26.991Z,15.77
2018-11-05T10:42:39.856Z,15.8
2018-11-05T10:43:53.896Z,15.71
2018-11-05T10:45:07.599Z,15.73
2018-11-05T10:46:24.074Z,15.68
2018-11-05T10:47:38.558Z,15.88
2018-11-05T10:48:53.198Z,15.78
2018-11-05T10:50:07.204Z,15.86
2018-11-05T10:51:24.946Z,15.78
2018-11-05T10:52:38.047Z,15.71
2018-11-05T10:53:52.170Z,15.81
2018-11-05T10:55:05.130Z,15.84
2018-11-05T10:56:20.157Z,15.86
2018-11-05T10:57:33.798Z,15.84
2018-11-05T10:58:46.977Z,16.04
2018-11-05T11:00:00.443Z,16
2018-11-05T11:01:15.083Z,15.99
2018-11-05T11:02:27.510Z,15.95
2018-11-05T11:03:38.798Z,15.86
2018-11-05T11:04:52.549Z,15.84
2018-11-05T11:06:07.515Z,15.91
2018-11-05T11:07:23.091Z,16.11
2018-11-05T11:08:36.265Z,16.25
2018-11-05T11:09:51.563Z,16.3
2018-11-05T11:11:04.946Z,16.34
2018-11-05T11:12:19.462Z,16.33
2018-11-05T11:13:31.921Z,16.27
2018-11-05T11:14:46.682Z,16.26
2018-11-05T11:16:02.899Z,16.21
2018-11-05T11:17:14.523Z,16.17
2018-11-05T11:18:28.644Z,16.18
2018-11-05T11:19:43.282Z,16.17
2018-11-05T11:20:56.963Z,16.27
2018-11-05T11:22:10.995Z,16.21
2018-11-05T11:23:24.446Z,16.32
2018-11-05T11:24:38.968Z,16.36
2018-11-05T11:25:51.868Z,16.47
2018-11-05T11:27:03.966Z,16.52
2018-11-05T11:28:18.104Z,16.55
2018-11-05T11:29:34.286Z,16.47
2018-11-05T11:30:48.403Z,16.36
2018-11-05T11:32:04.464Z,16.45
2018-11-05T11:33:17.678Z,16.22
2018-11-05T11:34:31.323Z,16.26
2018-11-05T11:35:46.147Z,16.3
2018-11-05T11:36:59.160Z,16.33
2018-11-05T11:38:15.156Z,16.4
2018-11-05T11:39:29.813Z,16.44
2018-11-05T11:40:44.832Z,16.45
2018-11-05T11:41:58.964Z,16.39
2018-11-05T11:43:15.086Z,16.36
2018-11-05T11:44:29.204Z,16.36
2018-11-05T11:45:41.816Z,16.36
2018-11-05T11:46:56.968Z,16.34
2018-11-05T11:48:14.954Z,16.37
2018-11-05T11:49:29.996Z,16.37
2018-11-05T11:50:43.325Z,16.33
2018-11-05T11:51:58.878Z,16.39
2018-11-05T11:53:12.233Z,16.47
2018-11-05T11:54:26.453Z,16.62
2018-11-05T11:55:41.257Z,16.65
2018-11-05T11:56:57.569Z,16.9
2018-11-05T11:58:12.679Z,16.87
2018-11-05T11:59:27.394Z,16.92
2018-11-05T12:00:40.458Z,17.06
2018-11-05T12:01:54.281Z,16.92
2018-11-05T12:03:09.721Z,16.87
2018-11-05T12:04:25.635Z,16.84
2018-11-05T12:05:41.662Z,16.81
2018-11-05T12:06:57.706Z,16.9
2018-11-05T12:08:13.055Z,17.02
2018-11-05T12:09:27.589Z,17.06
2018-11-05T12:10:42.870Z,17.12
2018-11-05T12:11:58.204Z,17.07
2018-11-05T12:13:16.726Z,17.07
2018-11-05T12:14:31.732Z,17.09
2018-11-05T12:15:47.072Z,17
2018-11-05T12:17:00.827Z,17.09
2018-11-05T12:18:16.527Z,17.05
2018-11-05T12:19:30.824Z,16.9
2018-11-05T12:20:46.238Z,16.9
2018-11-05T12:22:01.884Z,16.69
2018-11-05T12:23:17.607Z,16.67
2018-11-05T12:24:33.199Z,16.55
2018-11-05T12:25:48.571Z,16.63
2018-11-05T12:27:03.484Z,16.62
2018-11-05T12:28:16.650Z,16.59
2018-11-05T12:29:26.766Z,16.57
2018-11-05T12:30:36.952Z,16.58
2018-11-05T12:31:47.302Z,16.47
2018-11-05T12:32:57.223Z,16.37
2018-11-05T12:34:07.080Z,16.47
2018-11-05T12:35:17.391Z,16.42
2018-11-05T12:36:27.742Z,16.39
2018-11-05T12:37:38.131Z,16.32
2018-11-05T12:38:48.625Z,16.25
2018-11-05T12:39:59.151Z,16.21
2018-11-05T12:41:08.688Z,16.25
2018-11-05T12:42:18.800Z,16.26
2018-11-05T12:43:28.680Z,16.29
2018-11-05T12:44:38.908Z,16.34
2018-11-05T12:45:48.879Z,16.33
2018-11-05T12:46:58.744Z,16.33
2018-11-05T12:48:09.811Z,16.45
2018-11-05T12:49:19.956Z,16.34
2018-11-05T12:50:30.185Z,16.39
2018-11-05T12:51:40.134Z,16.27
2018-11-05T12:52:49.999Z,16.34
2018-11-05T12:53:59.850Z,16.36
2018-11-05T12:55:10.856Z,16.48
2018-11-05T12:56:20.931Z,16.44
2018-11-05T12:57:31.048Z,16.42
2018-11-05T12:58:41.144Z,16.59
2018-11-05T12:59:51.228Z,16.63
2018-11-05T13:01:00.913Z,16.57
2018-11-05T13:02:10.620Z,16.59
2018-11-05T13:03:20.753Z,16.52
2018-11-05T13:04:30.819Z,16.57
2018-11-05T13:05:40.707Z,16.47
2018-11-05T13:06:50.618Z,16.51
2018-11-05T13:08:01.989Z,16.47
2018-11-05T13:09:12.089Z,16.4
2018-11-05T13:10:21.926Z,16.33
2018-11-05T13:11:31.768Z,16.33
2018-11-05T13:12:41.584Z,16.45
2018-11-05T13:13:51.489Z,16.47
2018-11-05T13:15:01.639Z,16.39
2018-11-05T13:16:11.560Z,16.4
2018-11-05T13:17:21.409Z,16.44
2018-11-05T13:18:31.501Z,16.47
2018-11-05T13:19:41.366Z,16.48
2018-11-05T13:20:51.223Z,16.55
2018-11-05T13:22:01.099Z,16.58
2018-11-05T13:23:11.301Z,16.67
2018-11-05T13:24:21.087Z,16.72
2018-11-05T13:25:31.219Z,16.69
2018-11-05T13:26:41.045Z,16.81
2018-11-05T13:27:50.882Z,16.94
2018-11-05T13:29:00.987Z,17
2018-11-05T13:30:10.826Z,17.06
2018-11-05T13:31:20.643Z,17.06
2018-11-05T13:32:30.827Z,17.09
2018-11-05T13:33:40.403Z,17.12
2018-11-05T13:34:50.524Z,17.21
2018-11-05T13:36:00.373Z,17.32
2018-11-05T13:37:11.432Z,17.25
2018-11-05T13:38:23.782Z,17.28
2018-11-05T13:39:34.038Z,17.4
2018-11-05T13:40:44.120Z,17.35
2018-11-05T13:41:53.907Z,17.36
2018-11-05T13:43:04.033Z,17.32
2018-11-05T13:44:13.857Z,17.31
2018-11-05T13:45:24.758Z,17.31
2018-11-05T13:46:36.398Z,17.28
2018-11-05T13:47:49.325Z,17.28
2018-11-05T13:49:05.954Z,17.21
2018-11-05T13:50:19.110Z,17.2
2018-11-05T13:51:30.813Z,17.09
2018-11-05T13:52:41.087Z,17.06
2018-11-05T13:53:51.630Z,17.13
2018-11-05T13:55:03.219Z,17.15
2018-11-05T13:56:13.462Z,17.07
2018-11-05T13:57:23.003Z,17.07
2018-11-05T13:58:33.104Z,17.09
2018-11-05T13:59:43.038Z,17.05
2018-11-05T14:00:53.143Z,17.13
2018-11-05T14:02:03.221Z,17.1
2018-11-05T14:03:13.376Z,17.21
2018-11-05T14:04:23.188Z,17.27
2018-11-05T14:05:33.129Z,17.28
2018-11-05T14:06:43.071Z,17.28
2018-11-05T14:07:53.181Z,17.2
2018-11-05T14:09:03.092Z,17.15
2018-11-05T14:10:13.174Z,17.1
2018-11-05T14:11:23.065Z,17.07
2018-11-05T14:12:32.940Z,16.95
2018-11-05T14:13:43.214Z,17
2018-11-05T14:14:53.084Z,16.99
2018-11-05T14:16:03.179Z,16.92
2018-11-05T14:17:12.792Z,16.84
2018-11-05T14:18:22.936Z,16.95
2018-11-05T14:19:33.320Z,16.9
2018-11-05T14:20:43.125Z,16.84
2018-11-05T14:21:53.012Z,16.8
2018-11-05T14:23:05.266Z,16.8
2018-11-05T14:24:15.342Z,16.72
2018-11-05T14:25:25.554Z,16.72
2018-11-05T14:26:35.956Z,16.7
2018-11-05T14:27:47.136Z,16.65
2018-11-05T14:29:00.471Z,16.72
2018-11-05T14:30:12.234Z,16.74
2018-11-05T14:31:22.510Z,16.7
2018-11-05T14:32:32.592Z,16.74
2018-11-05T14:33:42.407Z,16.66
2018-11-05T14:34:52.218Z,16.57
2018-11-05T14:36:02.507Z,16.65
2018-11-05T14:37:12.816Z,16.63
2018-11-05T14:38:22.843Z,16.59
2018-11-05T14:39:32.757Z,16.62
2018-11-05T14:40:42.584Z,16.58
2018-11-05T14:41:52.663Z,16.58
2018-11-05T14:43:02.511Z,16.51
2018-11-05T14:44:13.038Z,16.45
2018-11-05T14:45:22.870Z,16.47
2018-11-05T14:46:33.061Z,16.4
2018-11-05T14:47:42.885Z,16.44
2018-11-05T14:48:52.965Z,16.39
2018-11-05T14:50:03.067Z,16.32
2018-11-05T14:51:13.260Z,16.26
2018-11-05T14:52:23.847Z,16.26
2018-11-05T14:53:34.048Z,16.18
2018-11-05T14:54:44.145Z,16.11
2018-11-05T14:55:53.993Z,16.14
2018-11-05T14:57:04.147Z,16.08
2018-11-05T14:58:13.700Z,16
2018-11-05T14:59:23.781Z,16
2018-11-05T15:00:33.955Z,16
2018-11-05T15:01:43.521Z,15.98
2018-11-05T15:02:53.546Z,16
2018-11-05T15:04:03.460Z,15.86
2018-11-05T15:05:13.554Z,15.88
2018-11-05T15:06:22.864Z,15.89
2018-11-05T15:07:32.800Z,15.84
2018-11-05T15:08:42.641Z,15.83
2018-11-05T15:09:52.713Z,15.88
2018-11-05T15:11:02.533Z,15.75
2018-11-05T15:12:12.340Z,15.7
2018-11-05T15:13:22.163Z,15.75
2018-11-05T15:14:32.252Z,15.7
2018-11-05T15:15:42.084Z,15.67
2018-11-05T15:16:51.924Z,15.68
2018-11-05T15:18:03.526Z,15.68
2018-11-05T15:19:14.839Z,15.63
2018-11-05T15:20:26.185Z,15.68
2018-11-05T15:21:36.288Z,15.62
2018-11-05T15:22:46.113Z,15.63
2018-11-05T15:23:55.684Z,15.56
2018-11-05T15:25:05.610Z,15.56
2018-11-05T15:26:15.817Z,15.59
2018-11-05T15:27:25.904Z,15.59
2018-11-05T15:28:35.978Z,15.6
2018-11-05T15:29:45.778Z,15.58
2018-11-05T15:30:55.601Z,15.53
2018-11-05T15:32:05.410Z,15.53
2018-11-05T15:33:15.941Z,15.45
2018-11-05T15:34:25.723Z,15.55
2018-11-05T15:35:35.831Z,15.56
2018-11-05T15:36:45.667Z,15.53
2018-11-05T15:37:55.591Z,15.47
2018-11-05T15:39:05.158Z,15.51
2018-11-05T15:40:15.322Z,15.53
2018-11-05T15:41:25.421Z,15.55
2018-11-05T15:42:35.561Z,15.56
2018-11-05T15:43:45.385Z,15.55
2018-11-05T15:44:55.521Z,15.58
2018-11-05T15:46:07.100Z,15.45
2018-11-05T15:47:16.961Z,15.43